Time;durP1;ratioP1;P1;durP2;ratioP2;P2;SDS_P1;SDS_P2;PMS_P1;PMS_P2;Temp;Humidity;BMP_temperature;BMP_pressure;BME280_temperature;BME280_humidity;BME280_pressure;Samples;Min_cycle;Max_cycle;Signal;HPM_P1;HPM_P2
2023/03/02 00:00:34;;;;;;;;;;;3.10;99.90;;;;;;5019675;28;218402;-73
2023/03/02 00:03:01;;;;;;;;;;;3.10;99.90;;;;;;5082295;28;19921;-73
2023/03/02 00:05:28;;;;;;;;;;;3.10;99.90;;;;;;4983172;28;205741;-73
2023/03/02 00:07:54;;;;;;;;;;;3.10;99.90;;;;;;5045170;28;21743;-73
2023/03/02 00:10:20;;;;;;;;;;;3.10;99.90;;;;;;5022571;28;207803;-72
2023/03/02 00:12:46;;;;;;;;;;;3.00;99.90;;;;;;5083892;28;19966;-72
2023/03/02 00:15:11;;;;;;;;;;;3.00;99.90;;;;;;5030960;28;207377;-73
2023/03/02 00:17:37;;;;;;;;;;;3.00;99.90;;;;;;5082561;28;19930;-73
2023/03/02 00:20:09;;;;;;;;;;;3.00;99.90;;;;;;5009519;28;209754;-73
2023/03/02 00:22:39;;;;;;;;;;;3.00;99.90;;;;;;5077211;28;20041;-74
2023/03/02 00:25:05;;;;;;;;;;;2.90;99.90;;;;;;4999854;28;206122;-73
2023/03/02 00:27:31;;;;;;;;;;;2.90;99.90;;;;;;5059950;28;19920;-73
2023/03/02 00:29:57;;;;;;;;;;;2.90;99.90;;;;;;4991649;28;206629;-72
2023/03/02 00:32:23;;;;;;;;;;;2.90;99.90;;;;;;5059318;28;19964;-72
2023/03/02 00:34:49;;;;;;;;;;;2.90;99.90;;;;;;4997818;28;207672;-72
2023/03/02 00:37:15;;;;;;;;;;;2.90;99.90;;;;;;5061598;28;19927;-72
2023/03/02 00:39:41;;;;;;;;;;;2.80;99.90;;;;;;4992362;28;259660;-72
2023/03/02 00:42:07;;;;;;;;;;;2.80;99.90;;;;;;5063368;28;19924;-73
2023/03/02 00:44:33;;;;;;;;;;;2.80;99.90;;;;;;5004381;28;209320;-72
2023/03/02 00:46:59;;;;;;;;;;;2.80;99.90;;;;;;5053971;28;19924;-73
2023/03/02 00:49:25;;;;;;;;;;;2.80;99.90;;;;;;5006888;28;203889;-72
2023/03/02 00:51:51;;;;;;;;;;;2.80;99.90;;;;;;5052036;28;19931;-72
2023/03/02 00:54:17;;;;;;;;;;;2.80;99.90;;;;;;5006526;28;221567;-72
2023/03/02 00:56:43;;;;;;;;;;;2.80;99.90;;;;;;5064992;28;19924;-72
2023/03/02 00:59:25;;;;;;;;;;;2.80;99.90;;;;;;5000288;28;206180;-72
2023/03/02 01:01:56;;;;;;;;;;;2.70;99.90;;;;;;5056230;28;19938;-73
2023/03/02 01:04:24;;;;;;;;;;;2.70;99.90;;;;;;5000151;28;172736;-72
2023/03/02 01:06:50;;;;;;;;;;;2.70;99.90;;;;;;5069159;28;20360;-73
2023/03/02 01:09:15;;;;;;;;;;;2.70;99.90;;;;;;5005794;28;206724;-72
2023/03/02 01:11:41;;;;;;;;;;;2.70;99.90;;;;;;5050298;28;19925;-72
2023/03/02 01:14:07;;;;;;;;;;;2.70;99.90;;;;;;4998513;28;204239;-73
2023/03/02 01:16:33;;;;;;;;;;;2.60;99.90;;;;;;5050029;28;19930;-72
2023/03/02 01:18:59;;;;;;;;;;;2.70;99.90;;;;;;5005868;28;214792;-72
2023/03/02 01:21:25;;;;;;;;;;;2.60;99.90;;;;;;5068782;28;19925;-72
2023/03/02 01:23:51;;;;;;;;;;;2.60;99.90;;;;;;5022466;28;176618;-73
2023/03/02 01:26:17;;;;;;;;;;;2.60;99.90;;;;;;5039057;28;20294;-73
2023/03/02 01:28:43;;;;;;;;;;;2.60;99.90;;;;;;5006754;28;206147;-72
2023/03/02 01:31:09;;;;;;;;;;;2.60;99.90;;;;;;5034690;28;19932;-72
2023/03/02 01:33:35;;;;;;;;;;;2.60;99.90;;;;;;5012557;28;208114;-72
2023/03/02 01:36:01;;;;;;;;;;;2.70;99.90;;;;;;5059547;28;20400;-72
2023/03/02 01:38:27;;;;;;;;;;;2.60;99.90;;;;;;5067606;28;208717;-72
2023/03/02 01:40:53;;;;;;;;;;;2.70;99.90;;;;;;5021250;28;183610;-72
2023/03/02 01:43:19;;;;;;;;;;;2.60;99.90;;;;;;5060898;28;19920;-72
2023/03/02 01:45:52;;;;;;;;;;;2.60;99.90;;;;;;4984123;28;207459;-72
2023/03/02 01:48:21;;;;;;;;;;;2.50;99.90;;;;;;5056494;28;19939;-72
2023/03/02 01:50:46;;;;;;;;;;;2.60;99.90;;;;;;4973288;28;212946;-72
2023/03/02 01:53:14;;;;;;;;;;;2.50;99.90;;;;;;5062432;28;19924;-71
2023/03/02 01:55:40;;;;;;;;;;;2.60;99.90;;;;;;4988709;28;204085;-72
2023/03/02 01:58:06;;;;;;;;;;;2.50;99.90;;;;;;5061756;28;19929;-73
2023/03/02 02:00:35;;;;;;;;;;;2.60;99.90;;;;;;4982248;28;218502;-71
2023/03/02 02:03:08;;;;;;;;;;;2.50;99.90;;;;;;5067545;28;20006;-72
2023/03/02 02:05:35;;;;;;;;;;;2.50;99.90;;;;;;4967789;28;210362;-72
2023/03/02 02:08:01;;;;;;;;;;;2.50;99.90;;;;;;5060475;28;19931;-72
2023/03/02 02:10:28;;;;;;;;;;;2.50;99.90;;;;;;4971633;28;212107;-72
2023/03/02 02:12:54;;;;;;;;;;;2.40;99.90;;;;;;5059052;28;19932;-72
2023/03/02 02:15:20;;;;;;;;;;;2.40;99.90;;;;;;4991806;28;207781;-72
2023/03/02 02:17:46;;;;;;;;;;;2.40;99.90;;;;;;5060302;28;19925;-72
2023/03/02 02:20:13;;;;;;;;;;;2.40;99.90;;;;;;4994647;28;207457;-72
2023/03/02 02:22:48;;;;;;;;;;;2.40;99.90;;;;;;5060751;28;19920;-73
2023/03/02 02:25:19;;;;;;;;;;;2.40;99.90;;;;;;4985364;28;204957;-73
2023/03/02 02:27:45;;;;;;;;;;;2.30;99.90;;;;;;5085567;28;19928;-73
2023/03/02 02:30:11;;;;;;;;;;;2.40;99.90;;;;;;5008578;28;211218;-73
2023/03/02 02:32:37;;;;;;;;;;;2.30;99.90;;;;;;5068879;28;20015;-73
2023/03/02 02:35:23;;;;;;;;;;;2.40;99.90;;;;;;5007744;28;206962;-73
2023/03/02 02:38:00;;;;;;;;;;;2.30;99.90;;;;;;5065678;28;19932;-73
2023/03/02 02:40:46;;;;;;;;;;;2.30;99.90;;;;;;5003503;28;207758;-73
2023/03/02 02:43:13;;;;;;;;;;;2.30;99.90;;;;;;5064158;28;19920;-73
2023/03/02 02:45:39;;;;;;;;;;;2.30;99.90;;;;;;5011942;28;207668;-72
2023/03/02 02:48:09;;;;;;;;;;;2.30;99.90;;;;;;5069009;28;19928;-72
2023/03/02 02:50:36;;;;;;;;;;;2.30;99.90;;;;;;5008848;28;206188;-72
2023/03/02 02:53:05;;;;;;;;;;;2.30;99.90;;;;;;5065680;28;19928;-72
2023/03/02 02:55:31;;;;;;;;;;;2.30;99.90;;;;;;5005831;28;251822;-72
2023/03/02 02:58:00;;;;;;;;;;;2.30;99.90;;;;;;5081933;28;19924;-72
2023/03/02 03:00:26;;;;;;;;;;;2.30;99.90;;;;;;4989954;28;208034;-73
2023/03/02 03:03:02;;;;;;;;;;;2.30;99.90;;;;;;5045435;28;19924;-73
2023/03/02 03:05:28;;;;;;;;;;;2.30;99.90;;;;;;4984901;28;198576;-74
2023/03/02 03:08:07;;;;;;;;;;;2.30;99.90;;;;;;5066873;28;19924;-73
2023/03/02 03:10:35;;;;;;;;;;;2.30;99.90;;;;;;4995731;28;207325;-73
2023/03/02 03:13:01;;;;;;;;;;;2.30;99.90;;;;;;5062046;28;19928;-72
2023/03/02 03:15:27;;;;;;;;;;;2.30;99.90;;;;;;4982324;28;206374;-73
2023/03/02 03:17:54;;;;;;;;;;;2.30;99.90;;;;;;5064015;28;20526;-73
2023/03/02 03:20:21;;;;;;;;;;;2.30;99.90;;;;;;4993878;28;185766;-73
2023/03/02 03:22:47;;;;;;;;;;;2.30;99.90;;;;;;5029746;28;20435;-73
2023/03/02 03:25:14;;;;;;;;;;;2.30;99.90;;;;;;5003853;28;196408;-73
2023/03/02 03:27:41;;;;;;;;;;;2.30;99.90;;;;;;5079969;28;19935;-72
2023/03/02 03:30:09;;;;;;;;;;;2.30;99.90;;;;;;4996638;28;80993;-72
2023/03/02 03:32:35;;;;;;;;;;;2.30;99.90;;;;;;5055509;28;20305;-72
2023/03/02 03:35:02;;;;;;;;;;;2.30;99.90;;;;;;5024156;28;213515;-72
2023/03/02 03:37:28;;;;;;;;;;;2.30;99.90;;;;;;5049436;28;19924;-72
2023/03/02 03:39:54;;;;;;;;;;;2.30;99.90;;;;;;5004936;28;206561;-72
2023/03/02 03:42:20;;;;;;;;;;;2.20;99.90;;;;;;5059346;28;20183;-72
2023/03/02 03:44:46;;;;;;;;;;;2.20;99.90;;;;;;4986640;28;209049;-72
2023/03/02 03:47:12;;;;;;;;;;;2.10;99.90;;;;;;5045997;28;21719;-72
2023/03/02 03:49:38;;;;;;;;;;;2.00;99.90;;;;;;4984222;28;206777;-72
2023/03/02 03:52:04;;;;;;;;;;;2.00;99.90;;;;;;5070021;28;19934;-73
2023/03/02 03:54:30;;;;;;;;;;;2.00;99.90;;;;;;5006624;28;206241;-72
2023/03/02 03:56:56;;;;;;;;;;;2.00;99.90;;;;;;5087842;28;19928;-72
2023/03/02 03:59:22;;;;;;;;;;;1.90;99.90;;;;;;5009307;28;206926;-72
2023/03/02 04:01:49;;;;;;;;;;;1.90;99.90;;;;;;5066853;28;19924;-72
2023/03/02 04:04:17;;;;;;;;;;;1.90;99.90;;;;;;5011070;28;206736;-72
2023/03/02 04:06:43;;;;;;;;;;;1.90;99.90;;;;;;5083422;28;19924;-73
2023/03/02 04:09:11;;;;;;;;;;;1.90;99.90;;;;;;5026964;28;205745;-72
2023/03/02 04:11:38;;;;;;;;;;;1.80;99.90;;;;;;5067340;28;19928;-72
2023/03/02 04:14:04;;;;;;;;;;;1.80;99.90;;;;;;5013255;28;205670;-72
2023/03/02 04:16:30;;;;;;;;;;;1.80;99.90;;;;;;5042356;28;19939;-72
2023/03/02 04:18:57;;;;;;;;;;;1.80;99.90;;;;;;5006375;28;208536;-71
2023/03/02 04:21:23;;;;;;;;;;;1.80;99.90;;;;;;5079086;28;19931;-72
2023/03/02 04:23:49;;;;;;;;;;;1.80;99.90;;;;;;5005868;28;209833;-72
2023/03/02 04:26:15;;;;;;;;;;;1.80;99.90;;;;;;5059728;28;20023;-72
2023/03/02 04:28:41;;;;;;;;;;;1.80;99.90;;;;;;5022594;28;206630;-72
2023/03/02 04:31:06;;;;;;;;;;;1.80;99.90;;;;;;5067903;28;20393;-72
2023/03/02 04:33:32;;;;;;;;;;;1.80;99.90;;;;;;5034156;28;207236;-72
2023/03/02 04:35:58;;;;;;;;;;;1.80;99.90;;;;;;5034016;28;19943;-73
2023/03/02 04:38:28;;;;;;;;;;;1.80;99.90;;;;;;5081093;28;19920;-72
2023/03/02 04:40:55;;;;;;;;;;;1.80;99.90;;;;;;4995300;28;194901;-72
2023/03/02 04:43:21;;;;;;;;;;;1.80;99.90;;;;;;5083861;28;19932;-72
2023/03/02 04:45:48;;;;;;;;;;;1.80;99.90;;;;;;5023425;28;212533;-72
2023/03/02 04:48:14;;;;;;;;;;;1.80;99.90;;;;;;5067810;28;19924;-71
2023/03/02 04:50:40;;;;;;;;;;;1.80;99.90;;;;;;5022183;28;214122;-71
2023/03/02 04:53:06;;;;;;;;;;;1.70;99.90;;;;;;5064912;28;20315;-73
2023/03/02 04:55:32;;;;;;;;;;;1.80;99.90;;;;;;5000736;28;205965;-72
2023/03/02 04:57:58;;;;;;;;;;;1.80;99.90;;;;;;5061628;28;19928;-72
2023/03/02 05:00:24;;;;;;;;;;;1.80;99.90;;;;;;4996037;28;211620;-73
2023/03/02 05:02:50;;;;;;;;;;;1.80;99.90;;;;;;5061865;28;20310;-73
2023/03/02 05:05:18;;;;;;;;;;;1.80;99.90;;;;;;4979635;28;223775;-72
2023/03/02 05:07:44;;;;;;;;;;;1.80;99.90;;;;;;5059282;28;19924;-72
2023/03/02 05:10:14;;;;;;;;;;;1.80;99.90;;;;;;5017155;28;210207;-72
2023/03/02 05:13:01;;;;;;;;;;;1.80;99.90;;;;;;5063670;28;19924;-72
2023/03/02 05:15:29;;;;;;;;;;;1.80;99.90;;;;;;5006894;28;207783;-73
2023/03/02 05:17:55;;;;;;;;;;;1.80;99.90;;;;;;5064580;28;19921;-73
2023/03/02 05:20:26;;;;;;;;;;;1.70;99.90;;;;;;5001814;28;207958;-72
2023/03/02 05:22:53;;;;;;;;;;;1.70;99.90;;;;;;5060988;28;19924;-74
2023/03/02 05:25:20;;;;;;;;;;;1.60;99.90;;;;;;5007233;28;207578;-74
2023/03/02 05:27:46;;;;;;;;;;;1.60;99.90;;;;;;5044239;28;20397;-72
2023/03/02 05:30:12;;;;;;;;;;;1.60;99.90;;;;;;5002791;28;210875;-74
2023/03/02 05:32:38;;;;;;;;;;;1.60;99.90;;;;;;5053583;28;20019;-72
2023/03/02 05:35:04;;;;;;;;;;;1.60;99.90;;;;;;5016230;28;206825;-72
2023/03/02 05:37:30;;;;;;;;;;;1.50;99.90;;;;;;5064527;28;20432;-74
2023/03/02 05:39:56;;;;;;;;;;;1.50;99.90;;;;;;5006827;28;130390;-73
2023/03/02 05:42:22;;;;;;;;;;;1.50;99.90;;;;;;5039149;28;20125;-72
2023/03/02 05:44:48;;;;;;;;;;;1.50;99.90;;;;;;5005090;28;210706;-73
2023/03/02 05:47:14;;;;;;;;;;;1.50;99.90;;;;;;5062714;28;20025;-73
2023/03/02 05:49:40;;;;;;;;;;;1.60;99.90;;;;;;5006909;28;213416;-72
2023/03/02 05:52:05;;;;;;;;;;;1.60;99.90;;;;;;5056269;28;19932;-73
2023/03/02 05:54:31;;;;;;;;;;;1.60;99.90;;;;;;5000794;28;208785;-73
2023/03/02 05:56:57;;;;;;;;;;;1.60;99.90;;;;;;5065597;28;20317;-72
2023/03/02 05:59:23;;;;;;;;;;;1.60;99.90;;;;;;5012858;28;208748;-72
2023/03/02 06:01:49;;;;;;;;;;;1.60;99.90;;;;;;5072161;28;19920;-72
2023/03/02 06:04:15;;;;;;;;;;;1.60;99.90;;;;;;4997313;28;204869;-72
2023/03/02 06:06:41;;;;;;;;;;;1.60;99.90;;;;;;5059930;28;20293;-73
2023/03/02 06:09:07;;;;;;;;;;;1.50;99.90;;;;;;5005960;28;210874;-72
2023/03/02 06:11:33;;;;;;;;;;;1.50;99.90;;;;;;5049506;28;19986;-72
2023/03/02 06:13:59;;;;;;;;;;;1.50;99.90;;;;;;4999648;28;206739;-72
2023/03/02 06:16:25;;;;;;;;;;;1.50;99.90;;;;;;5044561;28;19998;-73
2023/03/02 06:18:51;;;;;;;;;;;1.40;99.90;;;;;;5003403;28;207163;-72
2023/03/02 06:21:16;;;;;;;;;;;1.40;99.90;;;;;;5064582;28;19934;-73
2023/03/02 06:23:42;;;;;;;;;;;1.40;99.90;;;;;;5009484;28;208008;-72
2023/03/02 06:26:09;;;;;;;;;;;1.40;99.90;;;;;;5060919;28;19921;-72
2023/03/02 06:28:35;;;;;;;;;;;1.40;99.90;;;;;;5013502;28;207389;-73
2023/03/02 06:31:01;;;;;;;;;;;1.40;99.90;;;;;;5045026;28;19925;-73
2023/03/02 06:33:27;;;;;;;;;;;1.40;99.90;;;;;;5063007;28;209051;-72
2023/03/02 06:35:53;;;;;;;;;;;1.40;99.90;;;;;;5007304;28;206277;-73
2023/03/02 06:38:19;;;;;;;;;;;1.40;99.90;;;;;;5069307;28;20241;-73
2023/03/02 06:40:45;;;;;;;;;;;1.40;99.90;;;;;;5002140;28;218179;-73
2023/03/02 06:43:11;;;;;;;;;;;1.40;99.90;;;;;;5063617;28;19920;-73
2023/03/02 06:45:37;;;;;;;;;;;1.40;99.90;;;;;;4986266;28;215700;-73
2023/03/02 06:48:03;;;;;;;;;;;1.40;99.90;;;;;;5065582;28;20408;-73
2023/03/02 06:50:29;;;;;;;;;;;1.50;99.90;;;;;;4993893;28;209464;-73
2023/03/02 06:52:55;;;;;;;;;;;1.50;99.90;;;;;;5068138;28;19921;-72
2023/03/02 06:55:21;;;;;;;;;;;1.50;99.90;;;;;;5018753;28;206838;-73
2023/03/02 06:57:47;;;;;;;;;;;1.50;99.90;;;;;;5065931;28;20400;-73
2023/03/02 07:00:16;;;;;;;;;;;1.50;99.90;;;;;;5012916;28;205122;-73
2023/03/02 07:02:43;;;;;;;;;;;1.60;99.90;;;;;;5061536;28;19928;-73
2023/03/02 07:05:09;;;;;;;;;;;1.60;99.90;;;;;;4970187;28;215826;-73
2023/03/02 07:07:36;;;;;;;;;;;1.50;99.90;;;;;;5061409;28;19920;-73
2023/03/02 07:10:02;;;;;;;;;;;1.60;99.90;;;;;;5017818;28;208052;-73
2023/03/02 07:12:28;;;;;;;;;;;1.60;99.90;;;;;;5052684;28;19925;-73
2023/03/02 07:14:53;;;;;;;;;;;1.50;99.90;;;;;;4995700;28;195648;-74
2023/03/02 07:17:19;;;;;;;;;;;1.50;99.90;;;;;;5083188;28;20445;-74
2023/03/02 07:19:45;;;;;;;;;;;1.60;99.90;;;;;;5032942;28;218793;-73
2023/03/02 07:22:11;;;;;;;;;;;1.60;99.90;;;;;;5069333;28;19924;-74
2023/03/02 07:24:40;;;;;;;;;;;1.60;99.90;;;;;;4991299;28;234850;-73
2023/03/02 07:27:06;;;;;;;;;;;1.60;99.90;;;;;;5070235;28;19924;-73
2023/03/02 07:29:32;;;;;;;;;;;1.70;99.90;;;;;;5002526;28;226346;-73
2023/03/02 07:31:58;;;;;;;;;;;1.70;99.90;;;;;;5053410;28;19928;-73
2023/03/02 07:34:24;;;;;;;;;;;1.70;99.90;;;;;;5014766;28;211600;-73
2023/03/02 07:36:50;;;;;;;;;;;1.70;99.90;;;;;;5057199;28;19936;-73
2023/03/02 07:39:16;;;;;;;;;;;1.70;99.90;;;;;;5010906;28;206724;-73
2023/03/02 07:41:42;;;;;;;;;;;1.80;99.90;;;;;;5040625;28;20321;-73
2023/03/02 07:44:08;;;;;;;;;;;1.80;99.90;;;;;;5003016;28;217896;-72
2023/03/02 07:46:34;;;;;;;;;;;1.80;99.90;;;;;;5061968;28;20062;-73
2023/03/02 07:49:01;;;;;;;;;;;1.90;99.90;;;;;;5010329;28;209136;-74
2023/03/02 07:51:27;;;;;;;;;;;1.90;99.90;;;;;;5048606;28;20419;-73
2023/03/02 07:53:52;;;;;;;;;;;1.90;99.90;;;;;;5011047;28;214877;-73
2023/03/02 07:56:19;;;;;;;;;;;1.90;99.90;;;;;;5049569;28;19955;-73
2023/03/02 07:58:45;;;;;;;;;;;2.00;99.90;;;;;;4990361;28;216250;-73
2023/03/02 08:01:11;;;;;;;;;;;2.00;99.90;;;;;;5078822;28;20408;-73
2023/03/02 08:03:37;;;;;;;;;;;2.10;99.90;;;;;;5003166;28;207154;-73
2023/03/02 08:06:08;;;;;;;;;;;2.10;99.90;;;;;;5046896;28;19924;-73
2023/03/02 08:08:34;;;;;;;;;;;2.10;99.90;;;;;;5039227;28;206196;-72
2023/03/02 08:11:04;;;;;;;;;;;2.20;99.90;;;;;;5069096;28;19932;-73
2023/03/02 08:13:30;;;;;;;;;;;2.20;99.90;;;;;;5055083;28;212520;-72
2023/03/02 08:16:00;;;;;;;;;;;2.20;99.90;;;;;;5042178;28;102908;-73
2023/03/02 08:18:26;;;;;;;;;;;2.20;99.90;;;;;;5076893;28;207596;-72
2023/03/02 08:20:53;;;;;;;;;;;2.10;99.90;;;;;;5028824;28;202223;-73
2023/03/02 08:23:19;;;;;;;;;;;2.10;99.90;;;;;;5084264;28;19928;-73
2023/03/02 08:25:45;;;;;;;;;;;2.10;99.90;;;;;;5017341;28;208446;-73
2023/03/02 08:28:11;;;;;;;;;;;2.10;99.90;;;;;;5056521;28;19931;-73
2023/03/02 08:30:37;;;;;;;;;;;2.20;99.90;;;;;;5003300;28;168304;-73
2023/03/02 08:33:03;;;;;;;;;;;2.20;99.90;;;;;;5086453;28;19998;-72
2023/03/02 08:35:29;;;;;;;;;;;2.30;99.90;;;;;;5031800;28;209873;-72
2023/03/02 08:37:55;;;;;;;;;;;2.30;99.90;;;;;;5084092;28;19928;-72
2023/03/02 08:40:21;;;;;;;;;;;2.40;99.90;;;;;;4994044;28;206947;-72
2023/03/02 08:42:48;;;;;;;;;;;2.40;99.90;;;;;;5059452;28;19939;-72
2023/03/02 08:45:15;;;;;;;;;;;2.50;99.90;;;;;;5013942;28;208573;-72
2023/03/02 08:47:41;;;;;;;;;;;2.60;99.90;;;;;;5053563;28;20704;-73
2023/03/02 08:50:07;;;;;;;;;;;2.60;99.90;;;;;;5005938;28;215755;-73
2023/03/02 08:52:33;;;;;;;;;;;2.60;99.90;;;;;;5062244;28;19933;-73
2023/03/02 08:55:00;;;;;;;;;;;2.70;99.90;;;;;;5016108;28;248762;-73
2023/03/02 08:57:26;;;;;;;;;;;2.70;99.90;;;;;;5069184;28;20289;-73
2023/03/02 08:59:51;;;;;;;;;;;2.80;99.90;;;;;;5003880;28;204716;-74
2023/03/02 09:02:17;;;;;;;;;;;2.80;99.90;;;;;;5060604;28;19966;-74
2023/03/02 09:04:43;;;;;;;;;;;2.80;99.90;;;;;;4991168;28;240619;-74
2023/03/02 09:07:09;;;;;;;;;;;2.80;99.90;;;;;;5073700;28;19921;-73
2023/03/02 09:09:35;;;;;;;;;;;2.80;99.90;;;;;;5008288;28;207399;-74
2023/03/02 09:12:01;;;;;;;;;;;2.90;99.90;;;;;;5056260;28;20023;-74
2023/03/02 09:14:27;;;;;;;;;;;3.00;99.90;;;;;;5017979;28;208137;-74
2023/03/02 09:16:53;;;;;;;;;;;3.10;99.90;;;;;;5063211;28;20005;-73
2023/03/02 09:19:19;;;;;;;;;;;3.30;99.90;;;;;;5015184;28;206416;-73
2023/03/02 09:21:45;;;;;;;;;;;3.20;99.90;;;;;;5056376;28;20304;-73
2023/03/02 09:24:11;;;;;;;;;;;3.30;99.90;;;;;;5004018;28;239174;-71
2023/03/02 09:26:37;;;;;;;;;;;3.30;99.90;;;;;;5068414;28;20393;-71
2023/03/02 09:29:05;;;;;;;;;;;3.30;99.90;;;;;;5003466;28;209289;-72
2023/03/02 09:31:31;;;;;;;;;;;3.30;99.90;;;;;;5058333;28;19936;-72
2023/03/02 09:33:57;;;;;;;;;;;3.20;99.90;;;;;;5003805;28;208828;-73
2023/03/02 09:36:24;;;;;;;;;;;3.30;99.90;;;;;;5049432;28;19920;-72
2023/03/02 09:38:51;;;;;;;;;;;3.40;99.90;;;;;;5004076;28;207664;-72
2023/03/02 09:41:16;;;;;;;;;;;3.40;99.90;;;;;;5030335;28;19924;-72
2023/03/02 09:43:52;;;;;;;;;;;3.50;99.90;;;;;;5011531;28;220178;-72
2023/03/02 09:46:30;;;;;;;;;;;3.50;99.90;;;;;;5054181;28;19924;-73
2023/03/02 09:48:56;;;;;;;;;;;3.60;99.90;;;;;;4994690;28;206888;-72
2023/03/02 09:51:22;;;;;;;;;;;3.50;99.90;;;;;;5062463;28;20007;-73
2023/03/02 09:54:03;;;;;;;;;;;3.50;99.90;;;;;;5015498;28;267335;-72
2023/03/02 09:56:29;;;;;;;;;;;3.50;99.90;;;;;;5061584;28;19916;-73
2023/03/02 09:59:01;;;;;;;;;;;3.60;99.90;;;;;;5024823;28;210691;-72
2023/03/02 10:01:36;;;;;;;;;;;3.60;99.90;;;;;;5062949;28;19921;-72
2023/03/02 10:04:10;;;;;;;;;;;3.60;99.90;;;;;;4992236;28;209287;-72
2023/03/02 10:06:36;;;;;;;;;;;3.70;99.90;;;;;;5079512;28;19924;-73
2023/03/02 10:09:02;;;;;;;;;;;3.80;99.90;;;;;;5031446;28;206569;-73
2023/03/02 10:11:47;;;;;;;;;;;4.00;99.90;;;;;;5077881;28;19929;-73
2023/03/02 10:14:16;;;;;;;;;;;4.20;99.90;;;;;;5004757;28;237770;-73
2023/03/02 10:16:46;;;;;;;;;;;4.30;99.90;;;;;;5072769;28;19924;-72
2023/03/02 10:19:25;;;;;;;;;;;4.50;99.90;;;;;;5013423;28;233072;-72
2023/03/02 10:22:00;;;;;;;;;;;4.70;99.90;;;;;;5071953;28;19924;-73
2023/03/02 10:24:26;;;;;;;;;;;4.90;99.90;;;;;;5003240;28;207298;-71
2023/03/02 10:26:53;;;;;;;;;;;5.00;99.90;;;;;;5070578;28;19924;-72
2023/03/02 10:29:22;;;;;;;;;;;5.10;99.90;;;;;;5007267;28;233363;-73
2023/03/02 10:31:52;;;;;;;;;;;5.10;99.90;;;;;;5084194;28;20390;-73
2023/03/02 10:34:18;;;;;;;;;;;5.10;99.90;;;;;;5017978;28;207079;-72
2023/03/02 10:36:46;;;;;;;;;;;5.00;99.90;;;;;;5068455;28;19946;-72
2023/03/02 10:39:13;;;;;;;;;;;4.80;99.90;;;;;;5004721;28;206892;-74
2023/03/02 10:41:48;;;;;;;;;;;4.60;99.90;;;;;;5052496;28;19921;-73
2023/03/02 10:44:14;;;;;;;;;;;4.60;99.90;;;;;;5010375;28;211596;-73
2023/03/02 10:46:41;;;;;;;;;;;4.70;99.90;;;;;;5065283;28;20341;-72
2023/03/02 10:49:24;;;;;;;;;;;4.90;99.90;;;;;;5017156;28;243519;-73
2023/03/02 10:52:13;;;;;;;;;;;5.10;99.90;;;;;;5084411;28;20496;-73
2023/03/02 10:54:39;;;;;;;;;;;5.10;99.90;;;;;;5006557;28;247722;-73
2023/03/02 10:57:24;;;;;;;;;;;5.10;99.90;;;;;;5066544;28;19931;-73
2023/03/02 10:59:50;;;;;;;;;;;5.10;99.90;;;;;;5024860;28;227882;-73
2023/03/02 11:02:16;;;;;;;;;;;5.20;99.90;;;;;;5078078;28;19927;-73
2023/03/02 11:04:43;;;;;;;;;;;5.10;99.90;;;;;;4980350;28;231165;-72
2023/03/02 11:07:19;;;;;;;;;;;5.00;99.90;;;;;;5050160;28;19924;-72
2023/03/02 11:10:01;;;;;;;;;;;4.90;99.90;;;;;;5001240;28;288769;-75
2023/03/02 11:12:27;;;;;;;;;;;5.00;99.90;;;;;;5067884;28;19936;-73
2023/03/02 11:15:00;;;;;;;;;;;5.30;99.90;;;;;;5015478;28;198099;-73
2023/03/02 11:17:31;;;;;;;;;;;5.50;99.90;;;;;;5058594;28;19932;-73
2023/03/02 11:19:57;;;;;;;;;;;5.50;99.90;;;;;;5016883;28;211126;-73
2023/03/02 11:22:35;;;;;;;;;;;5.50;99.90;;;;;;5069163;28;20431;-72
2023/03/02 11:25:04;;;;;;;;;;;5.50;99.90;;;;;;5016979;28;207456;-75
2023/03/02 11:27:33;;;;;;;;;;;5.70;99.90;;;;;;5063960;28;19936;-72
2023/03/02 11:30:06;;;;;;;;;;;5.60;99.90;;;;;;5015389;28;239895;-74
2023/03/02 11:32:40;;;;;;;;;;;5.60;99.90;;;;;;5060760;28;20379;-74
2023/03/02 11:35:11;;;;;;;;;;;5.80;99.90;;;;;;4990042;28;206881;-74
2023/03/02 11:37:59;;;;;;;;;;;6.00;99.90;;;;;;5056328;28;19928;-74
2023/03/02 11:40:43;;;;;;;;;;;6.10;99.90;;;;;;4997070;28;205776;-73
2023/03/02 11:43:10;;;;;;;;;;;6.20;99.90;;;;;;5064449;28;20309;-72
2023/03/02 11:45:47;;;;;;;;;;;6.70;99.90;;;;;;5003982;28;206636;-73
2023/03/02 11:48:21;;;;;;;;;;;7.60;99.90;;;;;;5062358;28;19924;-73
2023/03/02 11:50:53;;;;;;;;;;;7.20;99.90;;;;;;4981277;28;128847;-73
2023/03/02 11:53:19;;;;;;;;;;;7.10;99.90;;;;;;5066409;28;19912;-74
2023/03/02 11:55:47;;;;;;;;;;;8.10;99.90;;;;;;5011937;28;218481;-73
2023/03/02 11:58:19;;;;;;;;;;;8.30;99.90;;;;;;5071611;28;19928;-73
2023/03/02 12:00:45;;;;;;;;;;;8.20;99.90;;;;;;4993222;28;209359;-72
2023/03/02 12:03:14;;;;;;;;;;;8.80;99.90;;;;;;5067486;28;19920;-74
2023/03/02 12:05:41;;;;;;;;;;;9.50;99.90;;;;;;4990504;28;207832;-72
2023/03/02 12:08:27;;;;;;;;;;;9.40;99.90;;;;;;5067489;28;19920;-71
2023/03/02 12:10:58;;;;;;;;;;;10.00;99.90;;;;;;5000315;28;104027;-72
2023/03/02 12:13:28;;;;;;;;;;;11.00;99.90;;;;;;5065401;28;19933;-73
2023/03/02 12:15:57;;;;;;;;;;;11.50;99.90;;;;;;5010756;28;203469;-73
2023/03/02 12:18:23;;;;;;;;;;;12.00;99.90;;;;;;5065260;28;19931;-73
2023/03/02 12:21:09;;;;;;;;;;;12.40;99.90;;;;;;5021644;28;206836;-74
2023/03/02 12:23:40;;;;;;;;;;;12.60;99.90;;;;;;5008057;28;207227;-72
2023/03/02 12:26:18;;;;;;;;;;;12.90;99.90;;;;;;5047861;28;20621;-74
2023/03/02 12:28:59;;;;;;;;;;;13.20;99.90;;;;;;4998008;28;213268;-72
2023/03/02 12:31:25;;;;;;;;;;;12.40;99.90;;;;;;5061609;28;19932;-73
2023/03/02 12:33:52;;;;;;;;;;;11.50;99.90;;;;;;5001323;28;214937;-72
2023/03/02 12:36:21;;;;;;;;;;;10.60;99.90;;;;;;5074264;28;20608;-73
2023/03/02 12:38:56;;;;;;;;;;;10.80;99.90;;;;;;5007009;28;207742;-73
2023/03/02 12:41:22;;;;;;;;;;;11.30;99.90;;;;;;5058717;28;19927;-73
2023/03/02 12:44:00;;;;;;;;;;;12.50;99.90;;;;;;5011425;28;215281;-73
2023/03/02 12:46:29;;;;;;;;;;;13.30;99.90;;;;;;5063714;28;19921;-73
2023/03/02 12:48:57;;;;;;;;;;;13.90;99.90;;;;;;5012504;28;230593;-73
2023/03/02 12:51:26;;;;;;;;;;;14.50;99.60;;;;;;5035732;28;19936;-73
2023/03/02 12:54:02;;;;;;;;;;;13.80;97.90;;;;;;5012202;28;206746;-73
2023/03/02 12:56:28;;;;;;;;;;;14.30;99.60;;;;;;5070634;28;19936;-74
2023/03/02 12:59:00;;;;;;;;;;;14.90;98.80;;;;;;5036041;28;198163;-74
2023/03/02 13:01:27;;;;;;;;;;;15.20;98.00;;;;;;5042694;28;19924;-73
2023/03/02 13:03:54;;;;;;;;;;;15.30;97.30;;;;;;4986928;28;247293;-73
2023/03/02 13:06:22;;;;;;;;;;;15.40;98.40;;;;;;5040798;28;19935;-73
2023/03/02 13:08:49;;;;;;;;;;;15.80;97.70;;;;;;5000407;28;210562;-73
2023/03/02 13:11:27;;;;;;;;;;;16.20;97.20;;;;;;5076025;28;19932;-73
2023/03/02 13:13:53;;;;;;;;;;;16.20;96.10;;;;;;5015376;28;215622;-73
2023/03/02 13:16:30;;;;;;;;;;;16.50;96.90;;;;;;5056256;28;19929;-73
2023/03/02 13:18:58;;;;;;;;;;;16.80;96.50;;;;;;4996029;28;208990;-72
2023/03/02 13:21:28;;;;;;;;;;;17.20;96.00;;;;;;5020855;28;20436;-73
2023/03/02 13:23:54;;;;;;;;;;;17.20;95.30;;;;;;5012124;28;128574;-73
2023/03/02 13:26:28;;;;;;;;;;;17.50;94.80;;;;;;5050500;28;20305;-73
2023/03/02 13:29:18;;;;;;;;;;;16.90;95.10;;;;;;5004144;28;210743;-73
2023/03/02 13:31:44;;;;;;;;;;;16.60;94.20;;;;;;5052008;28;19936;-73
2023/03/02 13:34:20;;;;;;;;;;;16.30;94.80;;;;;;5005702;28;209455;-73
2023/03/02 13:36:46;;;;;;;;;;;16.90;95.50;;;;;;5054390;28;19925;-72
2023/03/02 13:39:20;;;;;;;;;;;17.30;95.00;;;;;;5007209;28;211795;-73
2023/03/02 13:41:54;;;;;;;;;;;17.60;94.90;;;;;;5070720;28;19927;-73
2023/03/02 13:44:25;;;;;;;;;;;17.60;94.70;;;;;;4996574;28;246331;-73
2023/03/02 13:46:51;;;;;;;;;;;17.70;94.10;;;;;;5050706;28;19935;-72
2023/03/02 13:49:25;;;;;;;;;;;17.60;94.60;;;;;;5003944;28;209276;-72
2023/03/02 13:52:04;;;;;;;;;;;18.00;94.20;;;;;;5078251;28;19924;-74
2023/03/02 13:54:31;;;;;;;;;;;18.20;93.70;;;;;;5011105;28;213081;-73
2023/03/02 13:57:01;;;;;;;;;;;17.30;92.80;;;;;;5080039;28;19935;-72
2023/03/02 13:59:27;;;;;;;;;;;17.30;93.90;;;;;;5037585;28;250374;-73
2023/03/02 14:01:53;;;;;;;;;;;17.20;93.50;;;;;;5078991;28;19921;-73
2023/03/02 14:04:21;;;;;;;;;;;17.00;93.60;;;;;;5001507;28;226839;-74
2023/03/02 14:06:48;;;;;;;;;;;16.00;93.50;;;;;;5062307;28;19944;-73
2023/03/02 14:09:14;;;;;;;;;;;16.30;94.20;;;;;;5006185;28;210106;-73
2023/03/02 14:11:42;;;;;;;;;;;15.40;94.50;;;;;;5070702;28;20294;-73
2023/03/02 14:14:12;;;;;;;;;;;16.00;94.20;;;;;;4993648;28;248115;-72
2023/03/02 14:16:38;;;;;;;;;;;16.20;93.70;;;;;;5061581;28;19925;-72
2023/03/02 14:19:04;;;;;;;;;;;16.00;93.60;;;;;;5014343;28;205812;-73
2023/03/02 14:21:30;;;;;;;;;;;16.20;93.50;;;;;;5073739;28;19928;-72
2023/03/02 14:23:57;;;;;;;;;;;16.30;93.30;;;;;;5014466;28;215867;-73
2023/03/02 14:26:29;;;;;;;;;;;16.10;93.50;;;;;;5065467;28;19921;-73